Decoded Metar for KMEI (MERIDIAN/KEY FLD in MS, USA) (IATA:MEI) | Meteo·Mobile Aviation Weather
aviador You're here:

KMEI Decoded Metar

MERIDIAN/KEY FLD in MS, USA
Report Time2019-07-22 15:40:00
UTC Time2019-07-22 15:48:58
Flight Rules vfr VFR
Wind180° at 03 kt
W.Decomp.*RWY 19: 3.0 kt HW 0.4 kt LCW
RWY 22: 2.4 kt HW 1.8 kt LCW
Visibility9999 m
Phenomena:N/A
Clouds:Few 017 Hf
Few 022 Hf
Expected CloudBase > 2,000 ft AGL from Temp-Dew spread
CeilingNone
Temp27°C (ISA +13)
Dew Point22°C (74% RH)
Heat Index29.2°C
QNH1017 hPa
Density Alt1,955 ft
Elevation292 ft
Report Wrong Elevation
Raw Report
KMEI 221540Z 18003KT 10SM FEW017 FEW022 27/22 A3002 RMK AO2
T02720222 $=

Extra information for KMEI:More info

Metar Taf Metar & Taf Last 4 Metars F.Rules Stats Wind Profile Meteogram Temp Stats Airport Information Weather charts Add Link Nearby VenuesMetar ALERT Operation Metar Decoded Social comments

AIRNAV info for KMEI